createdAt,value
2022-11-29T07:13:29.942Z,4.70
2022-11-29T07:16:18.166Z,5.05
2022-11-29T07:18:45.217Z,4.32
2022-11-29T07:21:35.255Z,5.97
2022-11-29T07:24:05.311Z,5.47
2022-11-29T07:26:59.290Z,5.47
2022-11-29T07:29:45.720Z,5.78
2022-11-29T07:32:23.939Z,5.43
2022-11-29T07:35:00.420Z,5.43
2022-11-29T07:37:46.642Z,6.03
2022-11-29T07:40:13.629Z,7.32
2022-11-29T07:42:49.826Z,7.15
2022-11-29T07:45:33.044Z,4.32
2022-11-29T07:48:00.252Z,5.18
2022-11-29T07:50:27.926Z,6.57
2022-11-29T07:52:55.881Z,5.70
2022-11-29T07:55:24.146Z,5.60
2022-11-29T07:57:51.584Z,5.32
2022-11-29T08:00:19.273Z,5.03
2022-11-29T08:02:46.923Z,5.38
2022-11-29T08:05:14.060Z,4.78
2022-11-29T08:07:41.847Z,5.03
2022-11-29T08:10:10.496Z,8.32
2022-11-29T08:12:37.865Z,5.50
2022-11-29T08:15:06.852Z,5.82
2022-11-29T08:17:33.879Z,7.47
2022-11-29T08:20:03.999Z,5.13
2022-11-29T08:22:31.627Z,7.82
2022-11-29T08:24:59.831Z,5.90
2022-11-29T08:27:28.440Z,5.32
2022-11-29T08:29:55.541Z,5.60
2022-11-29T08:32:22.596Z,5.60
2022-11-29T08:34:49.696Z,6.13
2022-11-29T08:37:16.988Z,5.85
2022-11-29T08:39:44.313Z,6.85
2022-11-29T08:42:12.518Z,5.40
2022-11-29T08:44:39.532Z,5.15
2022-11-29T08:47:25.550Z,5.47
2022-11-29T08:50:03.335Z,6.27
2022-11-29T08:52:50.101Z,6.43
2022-11-29T08:55:17.743Z,6.10
2022-11-29T08:57:44.748Z,5.45
2022-11-29T09:00:12.490Z,6.80
2022-11-29T09:02:40.026Z,6.68
2022-11-29T09:05:07.778Z,6.85
2022-11-29T09:07:35.065Z,7.20
2022-11-29T09:10:06.097Z,6.40
2022-11-29T09:12:33.553Z,6.85
2022-11-29T09:15:00.915Z,6.78
2022-11-29T09:17:27.981Z,7.07
2022-11-29T09:19:55.006Z,17.50
2022-11-29T09:22:22.146Z,7.43
2022-11-29T09:24:49.247Z,12.33
2022-11-29T09:27:16.442Z,11.77
2022-11-29T09:29:43.489Z,10.57
2022-11-29T09:32:10.783Z,11.10
2022-11-29T09:34:37.855Z,10.25
2022-11-29T09:37:05.423Z,14.75
2022-11-29T09:39:33.645Z,9.65
2022-11-29T09:42:03.655Z,12.48
2022-11-29T09:44:38.362Z,12.07
2022-11-29T09:47:11.633Z,11.70
2022-11-29T09:49:47.868Z,16.13
2022-11-29T09:52:53.693Z,7.82
2022-11-29T09:55:53.695Z,11.85
2022-11-29T09:58:22.052Z,19.52
2022-11-29T10:00:50.378Z,11.77
2022-11-29T10:03:20.585Z,18.42
2022-11-29T10:05:52.888Z,12.77
2022-11-29T10:08:26.775Z,9.93
2022-11-29T10:10:56.852Z,12.45
2022-11-29T10:13:26.664Z,13.27
2022-11-29T10:15:55.500Z,12.80
2022-11-29T10:18:33.018Z,11.95
2022-11-29T10:21:03.577Z,16.15
2022-11-29T10:23:37.003Z,15.18
2022-11-29T10:26:07.878Z,26.95
2022-11-29T10:28:37.525Z,15.90
2022-11-29T10:31:24.979Z,25.88
2022-11-29T10:33:52.080Z,30.05
2022-11-29T10:36:31.221Z,22.20
2022-11-29T10:39:01.698Z,23.10
2022-11-29T10:41:28.699Z,17.90
2022-11-29T10:43:57.928Z,16.07
2022-11-29T10:46:32.207Z,18.93
2022-11-29T10:49:00.298Z,17.20
2022-11-29T10:51:44.731Z,10.80
2022-11-29T10:54:20.568Z,19.85
2022-11-29T10:56:48.205Z,12.98
2022-11-29T10:59:23.205Z,21.58
2022-11-29T11:01:51.012Z,19.08
2022-11-29T11:04:22.998Z,11.60
2022-11-29T11:06:52.151Z,15.75
2022-11-29T11:09:28.666Z,16.60
2022-11-29T11:11:57.798Z,18.77
2022-11-29T11:14:36.248Z,14.73
2022-11-29T11:17:25.858Z,16.10
2022-11-29T11:20:31.922Z,16.73
2022-11-29T11:23:03.507Z,16.03
2022-11-29T11:25:34.542Z,19.95
2022-11-29T11:28:20.377Z,17.38
2022-11-29T11:30:58.096Z,20.08
2022-11-29T11:33:27.213Z,21.10
2022-11-29T11:36:13.207Z,16.60
2022-11-29T11:39:00.489Z,18.83
2022-11-29T11:41:47.994Z,18.33
2022-11-29T11:44:46.760Z,16.35
2022-11-29T11:47:24.669Z,19.38
2022-11-29T11:49:54.621Z,14.47
2022-11-29T11:52:26.310Z,18.65
2022-11-29T11:54:58.614Z,18.60
2022-11-29T11:57:26.855Z,17.80
2022-11-29T11:59:55.549Z,18.73
2022-11-29T12:02:30.811Z,20.65
2022-11-29T12:04:59.502Z,16.45
2022-11-29T12:10:40.024Z,22.23
2022-11-29T12:13:17.992Z,15.52
2022-11-29T12:15:45.805Z,14.80
2022-11-29T12:18:27.498Z,19.30
2022-11-29T12:21:13.311Z,16.50
2022-11-29T12:23:54.194Z,16.73
2022-11-29T12:29:22.799Z,14.13
2022-11-29T12:32:00.841Z,11.07
2022-11-29T12:34:31.147Z,12.97
2022-11-29T12:37:08.702Z,18.10
2022-11-29T12:39:55.880Z,13.50
2022-11-29T12:42:25.817Z,11.20
2022-11-29T12:45:02.266Z,15.73
2022-11-29T12:47:36.746Z,11.48
2022-11-29T12:50:05.047Z,10.88
2022-11-29T12:52:46.353Z,15.90
2022-11-29T12:55:20.839Z,15.27
2022-11-29T12:57:54.052Z,14.57
2022-11-29T13:00:21.674Z,14.68
2022-11-29T13:03:07.648Z,16.15
2022-11-29T13:05:42.599Z,15.43
2022-11-29T13:08:21.977Z,10.40
2022-11-29T13:10:54.920Z,16.58
2022-11-29T13:13:34.341Z,12.50
2022-11-29T13:16:04.638Z,14.87
2022-11-29T13:18:34.887Z,16.40
2022-11-29T13:21:01.900Z,16.67
2022-11-29T13:26:35.235Z,17.52
2022-11-29T13:29:02.871Z,15.77
2022-11-29T13:31:30.526Z,13.02
2022-11-29T13:34:10.563Z,15.90
2022-11-29T13:36:44.002Z,16.17
2022-11-29T13:39:11.067Z,14.07
2022-11-29T13:41:48.607Z,15.57
2022-11-29T13:44:32.935Z,15.07
2022-11-29T13:46:59.925Z,13.05
2022-11-29T13:49:45.814Z,15.38
2022-11-29T13:52:23.205Z,17.10
2022-11-29T13:55:04.153Z,17.17
2022-11-29T13:58:14.324Z,10.03
2022-11-29T14:00:48.394Z,19.63
2022-11-29T14:03:24.819Z,14.20
2022-11-29T14:05:53.484Z,16.73
2022-11-29T14:08:25.634Z,19.92
2022-11-29T14:10:54.616Z,18.40
2022-11-29T14:13:23.526Z,19.13
2022-11-29T14:15:58.402Z,17.95
2022-11-29T14:18:37.897Z,14.57
2022-11-29T14:21:05.482Z,18.42
2022-11-29T14:23:35.547Z,19.45
2022-11-29T14:26:02.826Z,24.85
2022-11-29T14:28:31.829Z,16.70
2022-11-29T14:31:02.877Z,14.63
2022-11-29T14:33:37.245Z,18.30
2022-11-29T14:36:10.330Z,17.83
2022-11-29T14:38:43.247Z,14.73
2022-11-29T14:41:25.398Z,21.05
2022-11-29T14:44:04.220Z,17.27
2022-11-29T14:46:32.118Z,16.00
2022-11-29T14:49:00.827Z,13.80
